sensor_id;sensor_type;location;lat;lon;timestamp;temperature;humidity
2783;DHT22;1399;47.072;15.452;2022-10-15T00:01:47;15.20;81.70
2783;DHT22;1399;47.072;15.452;2022-10-15T00:04:13;15.20;81.70
2783;DHT22;1399;47.072;15.452;2022-10-15T00:06:39;15.20;81.70
2783;DHT22;1399;47.072;15.452;2022-10-15T00:09:04;15.10;81.60
2783;DHT22;1399;47.072;15.452;2022-10-15T00:11:31;15.20;81.70
2783;DHT22;1399;47.072;15.452;2022-10-15T00:13:58;15.10;81.50
2783;DHT22;1399;47.072;15.452;2022-10-15T00:16:26;15.10;81.60
2783;DHT22;1399;47.072;15.452;2022-10-15T00:18:57;15.10;81.60
2783;DHT22;1399;47.072;15.452;2022-10-15T00:21:24;15.10;81.60
2783;DHT22;1399;47.072;15.452;2022-10-15T00:23:50;15.10;81.60
2783;DHT22;1399;47.072;15.452;2022-10-15T00:26:21;15.10;81.70
2783;DHT22;1399;47.072;15.452;2022-10-15T00:28:49;15.10;81.60
2783;DHT22;1399;47.072;15.452;2022-10-15T00:31:16;15.10;81.60
2783;DHT22;1399;47.072;15.452;2022-10-15T00:33:43;15.00;81.50
2783;DHT22;1399;47.072;15.452;2022-10-15T00:36:15;15.00;81.50
2783;DHT22;1399;47.072;15.452;2022-10-15T00:38:42;15.00;81.50
2783;DHT22;1399;47.072;15.452;2022-10-15T00:41:13;15.00;81.50
2783;DHT22;1399;47.072;15.452;2022-10-15T00:48:50;15.00;81.50
2783;DHT22;1399;47.072;15.452;2022-10-15T00:51:19;15.00;81.50
2783;DHT22;1399;47.072;15.452;2022-10-15T00:53:47;15.00;81.50
2783;DHT22;1399;47.072;15.452;2022-10-15T00:56:16;14.90;81.40
2783;DHT22;1399;47.072;15.452;2022-10-15T00:58:42;14.90;81.40
2783;DHT22;1399;47.072;15.452;2022-10-15T01:01:08;14.90;81.50
2783;DHT22;1399;47.072;15.452;2022-10-15T01:03:34;14.90;81.40
2783;DHT22;1399;47.072;15.452;2022-10-15T01:06:00;14.90;81.40
2783;DHT22;1399;47.072;15.452;2022-10-15T01:08:27;14.90;81.40
2783;DHT22;1399;47.072;15.452;2022-10-15T01:22:13;14.90;81.30
2783;DHT22;1399;47.072;15.452;2022-10-15T01:30:20;14.80;81.20
2783;DHT22;1399;47.072;15.452;2022-10-15T01:35:47;14.80;81.10
2783;DHT22;1399;47.072;15.452;2022-10-15T01:41:05;14.80;81.10
2783;DHT22;1399;47.072;15.452;2022-10-15T01:43:37;14.80;81.10
2783;DHT22;1399;47.072;15.452;2022-10-15T01:46:13;14.80;81.10
2783;DHT22;1399;47.072;15.452;2022-10-15T01:48:41;14.80;81.00
2783;DHT22;1399;47.072;15.452;2022-10-15T01:51:09;14.80;81.00
2783;DHT22;1399;47.072;15.452;2022-10-15T01:53:37;14.80;81.00
2783;DHT22;1399;47.072;15.452;2022-10-15T01:56:11;14.70;80.90
2783;DHT22;1399;47.072;15.452;2022-10-15T01:58:41;14.70;80.90
2783;DHT22;1399;47.072;15.452;2022-10-15T02:01:08;14.70;80.90
2783;DHT22;1399;47.072;15.452;2022-10-15T02:03:48;14.70;80.90
2783;DHT22;1399;47.072;15.452;2022-10-15T02:09:24;14.70;80.90
2783;DHT22;1399;47.072;15.452;2022-10-15T02:12:01;14.70;80.80
2783;DHT22;1399;47.072;15.452;2022-10-15T02:14:40;14.70;80.80
2783;DHT22;1399;47.072;15.452;2022-10-15T02:17:09;14.70;80.80
2783;DHT22;1399;47.072;15.452;2022-10-15T02:20:15;14.70;80.70
2783;DHT22;1399;47.072;15.452;2022-10-15T02:23:17;14.70;80.70
2783;DHT22;1399;47.072;15.452;2022-10-15T02:25:46;14.70;80.70
2783;DHT22;1399;47.072;15.452;2022-10-15T02:28:13;14.70;80.70
2783;DHT22;1399;47.072;15.452;2022-10-15T02:30:41;14.70;80.70
2783;DHT22;1399;47.072;15.452;2022-10-15T02:33:10;14.70;80.70
2783;DHT22;1399;47.072;15.452;2022-10-15T02:35:36;14.70;80.60
2783;DHT22;1399;47.072;15.452;2022-10-15T02:38:05;14.70;80.60
2783;DHT22;1399;47.072;15.452;2022-10-15T02:40:33;14.70;80.60
2783;DHT22;1399;47.072;15.452;2022-10-15T02:43:04;14.70;80.60
2783;DHT22;1399;47.072;15.452;2022-10-15T02:45:31;14.70;80.50
2783;DHT22;1399;47.072;15.452;2022-10-15T02:47:57;14.70;80.50
2783;DHT22;1399;47.072;15.452;2022-10-15T02:50:22;14.70;80.50
2783;DHT22;1399;47.072;15.452;2022-10-15T02:52:48;14.70;80.40
2783;DHT22;1399;47.072;15.452;2022-10-15T02:55:14;14.70;80.40
2783;DHT22;1399;47.072;15.452;2022-10-15T02:57:40;14.70;80.40
2783;DHT22;1399;47.072;15.452;2022-10-15T03:00:06;14.70;80.30
2783;DHT22;1399;47.072;15.452;2022-10-15T03:02:32;14.70;80.40
2783;DHT22;1399;47.072;15.452;2022-10-15T03:04:58;14.70;80.40
2783;DHT22;1399;47.072;15.452;2022-10-15T03:07:24;14.70;80.30
2783;DHT22;1399;47.072;15.452;2022-10-15T03:09:50;14.70;80.30
2783;DHT22;1399;47.072;15.452;2022-10-15T03:12:16;14.70;80.20
2783;DHT22;1399;47.072;15.452;2022-10-15T03:14:42;14.70;80.30
2783;DHT22;1399;47.072;15.452;2022-10-15T03:17:08;14.80;80.40
2783;DHT22;1399;47.072;15.452;2022-10-15T03:19:34;14.70;80.20
2783;DHT22;1399;47.072;15.452;2022-10-15T03:21:59;14.80;80.30
2783;DHT22;1399;47.072;15.452;2022-10-15T03:24:25;14.70;80.20
2783;DHT22;1399;47.072;15.452;2022-10-15T03:26:51;14.70;80.20
2783;DHT22;1399;47.072;15.452;2022-10-15T03:29:16;14.80;80.30
2783;DHT22;1399;47.072;15.452;2022-10-15T03:31:42;14.80;80.30
2783;DHT22;1399;47.072;15.452;2022-10-15T03:34:09;14.80;80.30
2783;DHT22;1399;47.072;15.452;2022-10-15T03:36:34;14.80;80.30
2783;DHT22;1399;47.072;15.452;2022-10-15T03:39:00;14.70;80.20
2783;DHT22;1399;47.072;15.452;2022-10-15T03:41:26;14.80;80.30
2783;DHT22;1399;47.072;15.452;2022-10-15T03:43:52;14.80;80.30
2783;DHT22;1399;47.072;15.452;2022-10-15T03:46:18;14.80;80.50
2783;DHT22;1399;47.072;15.452;2022-10-15T03:48:48;14.80;80.30
2783;DHT22;1399;47.072;15.452;2022-10-15T03:51:15;14.80;80.30
2783;DHT22;1399;47.072;15.452;2022-10-15T03:53:40;14.80;80.30
2783;DHT22;1399;47.072;15.452;2022-10-15T03:56:06;14.80;80.30
2783;DHT22;1399;47.072;15.452;2022-10-15T03:58:32;14.70;80.30
2783;DHT22;1399;47.072;15.452;2022-10-15T04:00:58;14.70;80.30
2783;DHT22;1399;47.072;15.452;2022-10-15T04:03:23;14.70;80.30
2783;DHT22;1399;47.072;15.452;2022-10-15T04:05:51;14.70;80.30
2783;DHT22;1399;47.072;15.452;2022-10-15T04:08:17;14.70;80.30
2783;DHT22;1399;47.072;15.452;2022-10-15T04:10:43;14.70;80.30
2783;DHT22;1399;47.072;15.452;2022-10-15T04:13:08;14.70;80.30
2783;DHT22;1399;47.072;15.452;2022-10-15T04:15:38;14.70;80.40
2783;DHT22;1399;47.072;15.452;2022-10-15T04:18:04;14.70;80.40
2783;DHT22;1399;47.072;15.452;2022-10-15T04:20:30;14.70;80.40
2783;DHT22;1399;47.072;15.452;2022-10-15T04:22:55;14.70;80.40
2783;DHT22;1399;47.072;15.452;2022-10-15T04:25:21;14.70;80.40
2783;DHT22;1399;47.072;15.452;2022-10-15T04:27:47;14.80;80.50
2783;DHT22;1399;47.072;15.452;2022-10-15T04:30:13;14.80;80.60
2783;DHT22;1399;47.072;15.452;2022-10-15T04:32:38;14.80;80.50
2783;DHT22;1399;47.072;15.452;2022-10-15T04:35:04;14.70;80.50
2783;DHT22;1399;47.072;15.452;2022-10-15T04:37:34;14.80;80.60
2783;DHT22;1399;47.072;15.452;2022-10-15T04:39:59;14.80;80.60
2783;DHT22;1399;47.072;15.452;2022-10-15T04:42:28;14.80;80.60
2783;DHT22;1399;47.072;15.452;2022-10-15T04:44:54;14.80;80.60
2783;DHT22;1399;47.072;15.452;2022-10-15T04:47:20;14.80;80.60
2783;DHT22;1399;47.072;15.452;2022-10-15T04:49:45;14.80;80.60
2783;DHT22;1399;47.072;15.452;2022-10-15T04:52:11;14.80;80.50
2783;DHT22;1399;47.072;15.452;2022-10-15T04:54:37;14.80;80.60
2783;DHT22;1399;47.072;15.452;2022-10-15T04:57:05;14.80;80.50
2783;DHT22;1399;47.072;15.452;2022-10-15T04:59:31;14.80;80.50
2783;DHT22;1399;47.072;15.452;2022-10-15T05:01:57;14.80;80.50
2783;DHT22;1399;47.072;15.452;2022-10-15T05:04:23;14.80;80.50
2783;DHT22;1399;47.072;15.452;2022-10-15T05:06:49;14.80;80.60
2783;DHT22;1399;47.072;15.452;2022-10-15T05:09:14;14.80;80.50
2783;DHT22;1399;47.072;15.452;2022-10-15T05:11:40;14.80;80.50
2783;DHT22;1399;47.072;15.452;2022-10-15T05:14:06;14.80;80.50
2783;DHT22;1399;47.072;15.452;2022-10-15T05:16:33;14.80;80.50
2783;DHT22;1399;47.072;15.452;2022-10-15T05:19:04;14.90;80.60
2783;DHT22;1399;47.072;15.452;2022-10-15T05:21:30;14.80;80.50
2783;DHT22;1399;47.072;15.452;2022-10-15T05:23:57;14.80;80.60
2783;DHT22;1399;47.072;15.452;2022-10-15T05:26:25;14.90;80.70
2783;DHT22;1399;47.072;15.452;2022-10-15T05:28:52;14.90;80.80
2783;DHT22;1399;47.072;15.452;2022-10-15T05:31:20;14.90;80.80
2783;DHT22;1399;47.072;15.452;2022-10-15T05:33:50;14.90;80.90
2783;DHT22;1399;47.072;15.452;2022-10-15T05:36:21;14.90;80.90
2783;DHT22;1399;47.072;15.452;2022-10-15T05:38:50;14.90;80.90
2783;DHT22;1399;47.072;15.452;2022-10-15T05:41:17;14.90;80.90
2783;DHT22;1399;47.072;15.452;2022-10-15T05:43:45;14.90;80.80
2783;DHT22;1399;47.072;15.452;2022-10-15T05:46:10;15.00;80.90
2783;DHT22;1399;47.072;15.452;2022-10-15T05:48:36;15.00;80.90
2783;DHT22;1399;47.072;15.452;2022-10-15T05:51:09;15.00;80.90
2783;DHT22;1399;47.072;15.452;2022-10-15T05:53:35;15.00;80.80
2783;DHT22;1399;47.072;15.452;2022-10-15T05:56:03;15.00;80.80
2783;DHT22;1399;47.072;15.452;2022-10-15T05:58:29;15.00;80.90
2783;DHT22;1399;47.072;15.452;2022-10-15T06:01:00;15.00;81.00
2783;DHT22;1399;47.072;15.452;2022-10-15T06:03:27;15.00;80.90
2783;DHT22;1399;47.072;15.452;2022-10-15T06:05:53;15.00;81.10
2783;DHT22;1399;47.072;15.452;2022-10-15T06:08:20;15.10;81.20
2783;DHT22;1399;47.072;15.452;2022-10-15T06:10:47;15.10;81.20
2783;DHT22;1399;47.072;15.452;2022-10-15T06:13:13;15.10;81.40
2783;DHT22;1399;47.072;15.452;2022-10-15T06:15:44;15.10;81.40
2783;DHT22;1399;47.072;15.452;2022-10-15T06:18:11;15.10;81.40
2783;DHT22;1399;47.072;15.452;2022-10-15T06:20:42;15.10;81.40
2783;DHT22;1399;47.072;15.452;2022-10-15T06:23:09;15.20;81.50
2783;DHT22;1399;47.072;15.452;2022-10-15T06:25:35;15.20;81.40
2783;DHT22;1399;47.072;15.452;2022-10-15T06:28:03;15.20;81.40
2783;DHT22;1399;47.072;15.452;2022-10-15T06:30:29;15.20;81.40
2783;DHT22;1399;47.072;15.452;2022-10-15T06:32:55;15.20;81.40
2783;DHT22;1399;47.072;15.452;2022-10-15T06:35:23;15.20;81.40
2783;DHT22;1399;47.072;15.452;2022-10-15T06:37:49;15.20;81.40
2783;DHT22;1399;47.072;15.452;2022-10-15T06:40:15;15.20;81.40
2783;DHT22;1399;47.072;15.452;2022-10-15T06:42:41;15.20;81.50
2783;DHT22;1399;47.072;15.452;2022-10-15T06:45:08;15.30;81.60
2783;DHT22;1399;47.072;15.452;2022-10-15T06:47:39;15.30;81.60
2783;DHT22;1399;47.072;15.452;2022-10-15T06:50:05;15.30;81.60
2783;DHT22;1399;47.072;15.452;2022-10-15T06:52:32;15.30;81.60
2783;DHT22;1399;47.072;15.452;2022-10-15T06:54:58;15.30;81.60
2783;DHT22;1399;47.072;15.452;2022-10-15T06:57:25;15.40;81.70
2783;DHT22;1399;47.072;15.452;2022-10-15T06:59:51;15.40;81.70
2783;DHT22;1399;47.072;15.452;2022-10-15T07:02:17;15.40;81.70
2783;DHT22;1399;47.072;15.452;2022-10-15T07:04:44;15.40;81.70
2783;DHT22;1399;47.072;15.452;2022-10-15T07:07:10;15.50;81.80
2783;DHT22;1399;47.072;15.452;2022-10-15T07:09:36;15.50;81.90
2783;DHT22;1399;47.072;15.452;2022-10-15T07:12:02;15.50;81.90
2783;DHT22;1399;47.072;15.452;2022-10-15T07:14:28;15.50;82.00
2783;DHT22;1399;47.072;15.452;2022-10-15T07:16:53;15.60;82.10
2783;DHT22;1399;47.072;15.452;2022-10-15T07:19:19;15.60;82.10
2783;DHT22;1399;47.072;15.452;2022-10-15T07:21:45;15.60;82.00
2783;DHT22;1399;47.072;15.452;2022-10-15T07:24:11;15.60;82.00
2783;DHT22;1399;47.072;15.452;2022-10-15T07:26:37;15.60;82.00
2783;DHT22;1399;47.072;15.452;2022-10-15T07:29:03;15.70;82.10
2783;DHT22;1399;47.072;15.452;2022-10-15T07:31:29;15.70;82.10
2783;DHT22;1399;47.072;15.452;2022-10-15T07:33:55;15.70;82.10
2783;DHT22;1399;47.072;15.452;2022-10-15T07:36:21;15.70;83.00
2783;DHT22;1399;47.072;15.452;2022-10-15T07:38:47;15.70;82.00
2783;DHT22;1399;47.072;15.452;2022-10-15T07:41:13;15.70;82.20
2783;DHT22;1399;47.072;15.452;2022-10-15T07:43:38;15.70;82.20
2783;DHT22;1399;47.072;15.452;2022-10-15T07:46:04;15.80;82.20
2783;DHT22;1399;47.072;15.452;2022-10-15T07:48:31;15.80;82.20
2783;DHT22;1399;47.072;15.452;2022-10-15T07:50:59;15.80;82.20
2783;DHT22;1399;47.072;15.452;2022-10-15T07:53:26;15.80;82.20
2783;DHT22;1399;47.072;15.452;2022-10-15T07:55:51;15.80;82.30
2783;DHT22;1399;47.072;15.452;2022-10-15T07:58:18;15.90;82.40
2783;DHT22;1399;47.072;15.452;2022-10-15T08:00:44;15.90;82.30
2783;DHT22;1399;47.072;15.452;2022-10-15T08:03:10;15.90;82.40
2783;DHT22;1399;47.072;15.452;2022-10-15T08:05:36;15.90;82.40
2783;DHT22;1399;47.072;15.452;2022-10-15T08:08:02;15.90;82.40
2783;DHT22;1399;47.072;15.452;2022-10-15T08:10:28;15.90;82.30
2783;DHT22;1399;47.072;15.452;2022-10-15T08:12:54;15.90;82.30
2783;DHT22;1399;47.072;15.452;2022-10-15T08:15:19;16.00;82.50
2783;DHT22;1399;47.072;15.452;2022-10-15T08:17:45;16.00;82.40
2783;DHT22;1399;47.072;15.452;2022-10-15T08:20:11;16.00;82.40
2783;DHT22;1399;47.072;15.452;2022-10-15T08:22:37;16.00;82.30
2783;DHT22;1399;47.072;15.452;2022-10-15T08:25:03;16.10;83.20
2783;DHT22;1399;47.072;15.452;2022-10-15T08:27:28;16.10;82.40
2783;DHT22;1399;47.072;15.452;2022-10-15T08:29:54;16.10;82.30
2783;DHT22;1399;47.072;15.452;2022-10-15T08:32:20;16.10;82.20
2783;DHT22;1399;47.072;15.452;2022-10-15T08:34:45;16.10;82.20
2783;DHT22;1399;47.072;15.452;2022-10-15T08:37:11;16.20;82.30
2783;DHT22;1399;47.072;15.452;2022-10-15T08:39:37;16.10;82.20
2783;DHT22;1399;47.072;15.452;2022-10-15T08:42:15;16.20;82.30
2783;DHT22;1399;47.072;15.452;2022-10-15T08:44:56;16.20;82.40
2783;DHT22;1399;47.072;15.452;2022-10-15T08:47:51;16.30;82.50
2783;DHT22;1399;47.072;15.452;2022-10-15T08:53:01;16.30;82.50
2783;DHT22;1399;47.072;15.452;2022-10-15T08:55:32;16.30;82.50
2783;DHT22;1399;47.072;15.452;2022-10-15T08:58:23;16.30;82.50
2783;DHT22;1399;47.072;15.452;2022-10-15T09:00:58;16.30;82.50
2783;DHT22;1399;47.072;15.452;2022-10-15T09:14:21;16.40;82.60
2783;DHT22;1399;47.072;15.452;2022-10-15T09:16:49;16.50;82.60
2783;DHT22;1399;47.072;15.452;2022-10-15T09:19:18;16.50;82.50
2783;DHT22;1399;47.072;15.452;2022-10-15T09:21:46;16.60;82.50
2783;DHT22;1399;47.072;15.452;2022-10-15T09:24:26;16.60;82.40
2783;DHT22;1399;47.072;15.452;2022-10-15T09:44:50;16.90;81.90
2783;DHT22;1399;47.072;15.452;2022-10-15T09:47:24;16.90;82.00
2783;DHT22;1399;47.072;15.452;2022-10-15T09:49:50;16.90;81.90
2783;DHT22;1399;47.072;15.452;2022-10-15T09:57:54;17.10;82.00
2783;DHT22;1399;47.072;15.452;2022-10-15T10:00:20;17.20;81.80
2783;DHT22;1399;47.072;15.452;2022-10-15T10:03:12;17.20;81.50
2783;DHT22;1399;47.072;15.452;2022-10-15T10:05:39;17.30;81.50
2783;DHT22;1399;47.072;15.452;2022-10-15T10:08:15;17.30;80.80
2783;DHT22;1399;47.072;15.452;2022-10-15T10:10:44;17.40;80.60
2783;DHT22;1399;47.072;15.452;2022-10-15T10:13:27;17.50;80.10
2783;DHT22;1399;47.072;15.452;2022-10-15T10:16:00;17.60;79.70
2783;DHT22;1399;47.072;15.452;2022-10-15T10:18:26;17.60;79.30
2783;DHT22;1399;47.072;15.452;2022-10-15T10:20:55;17.60;79.10
2783;DHT22;1399;47.072;15.452;2022-10-15T10:23:28;17.70;79.10
2783;DHT22;1399;47.072;15.452;2022-10-15T10:25:57;17.70;79.00
2783;DHT22;1399;47.072;15.452;2022-10-15T10:28:33;17.70;79.00
2783;DHT22;1399;47.072;15.452;2022-10-15T10:31:10;17.70;80.00
2783;DHT22;1399;47.072;15.452;2022-10-15T10:33:59;17.70;79.30
2783;DHT22;1399;47.072;15.452;2022-10-15T10:36:28;17.70;79.20
2783;DHT22;1399;47.072;15.452;2022-10-15T10:41:49;17.80;79.00
2783;DHT22;1399;47.072;15.452;2022-10-15T10:44:26;17.80;79.70
2783;DHT22;1399;47.072;15.452;2022-10-15T10:49:36;17.90;79.70
2783;DHT22;1399;47.072;15.452;2022-10-15T10:52:04;17.90;78.70
2783;DHT22;1399;47.072;15.452;2022-10-15T10:54:31;17.90;78.50
2783;DHT22;1399;47.072;15.452;2022-10-15T10:56:59;17.90;78.40
2783;DHT22;1399;47.072;15.452;2022-10-15T10:59:34;18.00;78.40
2783;DHT22;1399;47.072;15.452;2022-10-15T11:02:00;18.00;78.30
2783;DHT22;1399;47.072;15.452;2022-10-15T11:04:32;18.00;78.20
2783;DHT22;1399;47.072;15.452;2022-10-15T11:15:48;18.10;78.00
2783;DHT22;1399;47.072;15.452;2022-10-15T11:18:49;18.20;78.10
2783;DHT22;1399;47.072;15.452;2022-10-15T11:24:19;18.20;78.10
2783;DHT22;1399;47.072;15.452;2022-10-15T11:42:58;18.30;78.10
2783;DHT22;1399;47.072;15.452;2022-10-15T11:51:05;18.30;78.10
2783;DHT22;1399;47.072;15.452;2022-10-15T11:53:41;18.30;78.10
2783;DHT22;1399;47.072;15.452;2022-10-15T11:56:37;18.30;78.20
2783;DHT22;1399;47.072;15.452;2022-10-15T12:02:20;18.30;78.20
2783;DHT22;1399;47.072;15.452;2022-10-15T12:04:53;18.30;78.20
2783;DHT22;1399;47.072;15.452;2022-10-15T12:07:45;18.30;78.20
2783;DHT22;1399;47.072;15.452;2022-10-15T12:12:48;18.30;78.10
2783;DHT22;1399;47.072;15.452;2022-10-15T12:15:26;18.30;78.20
2783;DHT22;1399;47.072;15.452;2022-10-15T12:18:17;18.30;78.20
2783;DHT22;1399;47.072;15.452;2022-10-15T12:20:44;18.30;78.30
2783;DHT22;1399;47.072;15.452;2022-10-15T12:26:31;18.30;78.40
2783;DHT22;1399;47.072;15.452;2022-10-15T12:29:00;18.30;78.50
2783;DHT22;1399;47.072;15.452;2022-10-15T12:31:49;18.30;78.40
2783;DHT22;1399;47.072;15.452;2022-10-15T12:34:27;18.30;78.50
2783;DHT22;1399;47.072;15.452;2022-10-15T12:37:14;18.30;78.40
2783;DHT22;1399;47.072;15.452;2022-10-15T12:39:42;18.30;78.40
2783;DHT22;1399;47.072;15.452;2022-10-15T12:42:30;18.30;78.40
2783;DHT22;1399;47.072;15.452;2022-10-15T12:44:58;18.30;78.40
2783;DHT22;1399;47.072;15.452;2022-10-15T12:50:29;18.30;78.40
2783;DHT22;1399;47.072;15.452;2022-10-15T12:57:59;18.40;78.50
2783;DHT22;1399;47.072;15.452;2022-10-15T13:02:52;18.40;78.50
2783;DHT22;1399;47.072;15.452;2022-10-15T13:05:32;18.40;78.50
2783;DHT22;1399;47.072;15.452;2022-10-15T13:08:00;18.40;78.40
2783;DHT22;1399;47.072;15.452;2022-10-15T13:10:33;18.40;78.40
2783;DHT22;1399;47.072;15.452;2022-10-15T13:13:03;18.40;78.30
2783;DHT22;1399;47.072;15.452;2022-10-15T13:15:30;18.40;78.30
2783;DHT22;1399;47.072;15.452;2022-10-15T13:17:59;18.40;78.20
2783;DHT22;1399;47.072;15.452;2022-10-15T13:20:49;18.40;78.20
2783;DHT22;1399;47.072;15.452;2022-10-15T13:23:28;18.40;78.20
2783;DHT22;1399;47.072;15.452;2022-10-15T13:26:21;18.40;78.00
2783;DHT22;1399;47.072;15.452;2022-10-15T13:28:49;18.40;78.00
2783;DHT22;1399;47.072;15.452;2022-10-15T13:31:21;18.50;78.10
2783;DHT22;1399;47.072;15.452;2022-10-15T13:33:53;18.50;78.00
2783;DHT22;1399;47.072;15.452;2022-10-15T13:36:25;18.40;77.80
2783;DHT22;1399;47.072;15.452;2022-10-15T13:42:07;18.40;77.80
2783;DHT22;1399;47.072;15.452;2022-10-15T13:44:33;18.50;77.80
2783;DHT22;1399;47.072;15.452;2022-10-15T13:46:59;18.40;77.70
2783;DHT22;1399;47.072;15.452;2022-10-15T13:49:25;18.40;77.70
2783;DHT22;1399;47.072;15.452;2022-10-15T13:51:52;18.40;77.70
2783;DHT22;1399;47.072;15.452;2022-10-15T13:54:24;18.40;77.70
2783;DHT22;1399;47.072;15.452;2022-10-15T13:56:58;18.40;77.70
2783;DHT22;1399;47.072;15.452;2022-10-15T13:59:26;18.40;77.70
2783;DHT22;1399;47.072;15.452;2022-10-15T14:01:58;18.40;77.70
2783;DHT22;1399;47.072;15.452;2022-10-15T14:04:31;18.40;77.60
2783;DHT22;1399;47.072;15.452;2022-10-15T14:07:01;18.40;77.60
2783;DHT22;1399;47.072;15.452;2022-10-15T14:09:31;18.40;77.60
2783;DHT22;1399;47.072;15.452;2022-10-15T14:11:58;18.40;77.70
2783;DHT22;1399;47.072;15.452;2022-10-15T14:14:29;18.40;77.70
2783;DHT22;1399;47.072;15.452;2022-10-15T14:16:57;18.30;77.60
2783;DHT22;1399;47.072;15.452;2022-10-15T14:19:23;18.40;77.80
2783;DHT22;1399;47.072;15.452;2022-10-15T14:21:55;18.30;77.70
2783;DHT22;1399;47.072;15.452;2022-10-15T14:24:33;18.30;77.70
2783;DHT22;1399;47.072;15.452;2022-10-15T14:27:17;18.30;77.80
2783;DHT22;1399;47.072;15.452;2022-10-15T14:29:46;18.30;77.80
2783;DHT22;1399;47.072;15.452;2022-10-15T14:32:41;18.30;77.90
2783;DHT22;1399;47.072;15.452;2022-10-15T14:35:29;18.30;77.90
2783;DHT22;1399;47.072;15.452;2022-10-15T14:38:02;18.20;77.90
2783;DHT22;1399;47.072;15.452;2022-10-15T14:40:28;18.20;77.90
2783;DHT22;1399;47.072;15.452;2022-10-15T14:47:58;18.10;78.10
2783;DHT22;1399;47.072;15.452;2022-10-15T14:50:30;18.10;78.20
2783;DHT22;1399;47.072;15.452;2022-10-15T14:52:58;18.10;78.20
2783;DHT22;1399;47.072;15.452;2022-10-15T14:55:33;18.10;78.20
2783;DHT22;1399;47.072;15.452;2022-10-15T14:58:14;18.00;78.20
2783;DHT22;1399;47.072;15.452;2022-10-15T15:00:43;18.00;78.40
2783;DHT22;1399;47.072;15.452;2022-10-15T15:03:18;18.00;78.40
2783;DHT22;1399;47.072;15.452;2022-10-15T15:05:47;18.00;78.50
2783;DHT22;1399;47.072;15.452;2022-10-15T15:08:13;17.90;78.50
2783;DHT22;1399;47.072;15.452;2022-10-15T15:10:39;17.90;78.70
2783;DHT22;1399;47.072;15.452;2022-10-15T15:13:05;17.90;78.70
2783;DHT22;1399;47.072;15.452;2022-10-15T15:15:31;17.90;78.90
2783;DHT22;1399;47.072;15.452;2022-10-15T15:17:57;17.80;78.90
2783;DHT22;1399;47.072;15.452;2022-10-15T15:20:23;17.80;79.00
2783;DHT22;1399;47.072;15.452;2022-10-15T15:22:53;17.80;79.10
2783;DHT22;1399;47.072;15.452;2022-10-15T15:25:22;17.70;79.20
2783;DHT22;1399;47.072;15.452;2022-10-15T15:27:49;17.70;79.20
2783;DHT22;1399;47.072;15.452;2022-10-15T15:30:26;17.70;79.30
2783;DHT22;1399;47.072;15.452;2022-10-15T15:32:52;17.70;79.40
2783;DHT22;1399;47.072;15.452;2022-10-15T15:38:06;17.60;79.60
2783;DHT22;1399;47.072;15.452;2022-10-15T15:40:33;17.50;79.60
2783;DHT22;1399;47.072;15.452;2022-10-15T15:42:59;17.50;79.60
2783;DHT22;1399;47.072;15.452;2022-10-15T15:45:26;17.50;79.70
2783;DHT22;1399;47.072;15.452;2022-10-15T15:47:52;17.50;79.80
2783;DHT22;1399;47.072;15.452;2022-10-15T15:50:21;17.50;79.90
2783;DHT22;1399;47.072;15.452;2022-10-15T15:52:47;17.40;79.80
2783;DHT22;1399;47.072;15.452;2022-10-15T15:55:13;17.40;79.90
2783;DHT22;1399;47.072;15.452;2022-10-15T15:57:39;17.40;80.00
2783;DHT22;1399;47.072;15.452;2022-10-15T16:00:07;17.40;80.10
2783;DHT22;1399;47.072;15.452;2022-10-15T16:02:34;17.40;80.10
2783;DHT22;1399;47.072;15.452;2022-10-15T16:05:00;17.40;80.20
2783;DHT22;1399;47.072;15.452;2022-10-15T16:07:27;17.40;80.30
2783;DHT22;1399;47.072;15.452;2022-10-15T16:09:53;17.30;80.30
2783;DHT22;1399;47.072;15.452;2022-10-15T16:12:18;17.30;80.30
2783;DHT22;1399;47.072;15.452;2022-10-15T16:14:44;17.30;80.40
2783;DHT22;1399;47.072;15.452;2022-10-15T16:17:10;17.30;80.50
2783;DHT22;1399;47.072;15.452;2022-10-15T16:19:35;17.30;80.60
2783;DHT22;1399;47.072;15.452;2022-10-15T16:22:01;17.20;80.50
2783;DHT22;1399;47.072;15.452;2022-10-15T16:24:27;17.20;80.60
2783;DHT22;1399;47.072;15.452;2022-10-15T16:26:53;17.20;80.70
2783;DHT22;1399;47.072;15.452;2022-10-15T16:29:18;17.20;80.80
2783;DHT22;1399;47.072;15.452;2022-10-15T16:31:44;17.10;80.70
2783;DHT22;1399;47.072;15.452;2022-10-15T16:34:10;17.10;80.80
2783;DHT22;1399;47.072;15.452;2022-10-15T16:36:35;17.10;80.90
2783;DHT22;1399;47.072;15.452;2022-10-15T16:39:02;17.10;81.00
2783;DHT22;1399;47.072;15.452;2022-10-15T16:41:27;17.00;81.00
2783;DHT22;1399;47.072;15.452;2022-10-15T16:43:53;17.00;81.10
2783;DHT22;1399;47.072;15.452;2022-10-15T16:46:19;17.00;81.20
2783;DHT22;1399;47.072;15.452;2022-10-15T16:48:45;17.00;81.30
2783;DHT22;1399;47.072;15.452;2022-10-15T16:51:13;17.00;81.50
2783;DHT22;1399;47.072;15.452;2022-10-15T16:53:41;16.90;81.50
2783;DHT22;1399;47.072;15.452;2022-10-15T16:56:13;16.90;81.60
2783;DHT22;1399;47.072;15.452;2022-10-15T16:58:39;16.90;81.70
2783;DHT22;1399;47.072;15.452;2022-10-15T17:01:10;16.90;81.80
2783;DHT22;1399;47.072;15.452;2022-10-15T17:03:38;16.80;81.80
2783;DHT22;1399;47.072;15.452;2022-10-15T17:06:07;16.80;81.90
2783;DHT22;1399;47.072;15.452;2022-10-15T17:08:43;16.80;82.00
2783;DHT22;1399;47.072;15.452;2022-10-15T17:11:23;16.80;82.10
2783;DHT22;1399;47.072;15.452;2022-10-15T17:13:51;16.80;82.20
2783;DHT22;1399;47.072;15.452;2022-10-15T17:16:19;16.80;82.30
2783;DHT22;1399;47.072;15.452;2022-10-15T17:18:46;16.70;82.30
2783;DHT22;1399;47.072;15.452;2022-10-15T17:21:16;16.70;82.40
2783;DHT22;1399;47.072;15.452;2022-10-15T17:23:42;16.70;82.50
2783;DHT22;1399;47.072;15.452;2022-10-15T17:26:12;16.70;82.50
2783;DHT22;1399;47.072;15.452;2022-10-15T17:28:38;16.70;82.60
2783;DHT22;1399;47.072;15.452;2022-10-15T17:31:10;16.60;82.70
2783;DHT22;1399;47.072;15.452;2022-10-15T17:33:39;16.60;82.80
2783;DHT22;1399;47.072;15.452;2022-10-15T17:36:16;16.60;82.90
2783;DHT22;1399;47.072;15.452;2022-10-15T17:38:43;16.60;82.90
2783;DHT22;1399;47.072;15.452;2022-10-15T17:41:20;16.60;83.10
2783;DHT22;1399;47.072;15.452;2022-10-15T17:43:47;16.50;83.00
2783;DHT22;1399;47.072;15.452;2022-10-15T17:46:19;16.50;83.10
2783;DHT22;1399;47.072;15.452;2022-10-15T17:48:46;16.50;83.30
2783;DHT22;1399;47.072;15.452;2022-10-15T17:51:15;16.50;83.40
2783;DHT22;1399;47.072;15.452;2022-10-15T17:53:42;16.50;83.50
2783;DHT22;1399;47.072;15.452;2022-10-15T17:56:17;16.40;83.50
2783;DHT22;1399;47.072;15.452;2022-10-15T17:58:44;16.40;83.60
2783;DHT22;1399;47.072;15.452;2022-10-15T18:01:16;16.40;83.70
2783;DHT22;1399;47.072;15.452;2022-10-15T18:03:42;16.40;83.70
2783;DHT22;1399;47.072;15.452;2022-10-15T18:06:10;16.40;83.80
2783;DHT22;1399;47.072;15.452;2022-10-15T18:08:36;16.40;83.80
2783;DHT22;1399;47.072;15.452;2022-10-15T18:11:02;16.40;83.90
2783;DHT22;1399;47.072;15.452;2022-10-15T18:13:28;16.30;83.80
2783;DHT22;1399;47.072;15.452;2022-10-15T18:15:55;16.30;83.90